createdAt,value
2022-11-28T04:40:09.762Z,100.00
2022-11-28T04:43:26.797Z,100.00
2022-11-28T04:46:37.885Z,100.00
2022-11-28T04:49:40.661Z,100.00
2022-11-28T04:52:42.876Z,100.00
2022-11-28T04:55:52.570Z,100.00
2022-11-28T04:58:54.886Z,100.00
2022-11-28T05:02:01.411Z,100.00
2022-11-28T05:05:26.151Z,100.00
2022-11-28T05:08:29.349Z,100.00
2022-11-28T05:11:32.189Z,100.00
2022-11-28T05:14:34.996Z,100.00
2022-11-28T05:17:42.198Z,100.00
2022-11-28T05:20:45.374Z,100.00
2022-11-28T05:23:48.161Z,100.00
2022-11-28T05:26:50.896Z,100.00
2022-11-28T05:29:53.873Z,100.00
2022-11-28T05:32:58.528Z,100.00
2022-11-28T05:36:13.227Z,100.00
2022-11-28T05:39:17.521Z,100.00
2022-11-28T05:42:20.467Z,100.00
2022-11-28T05:45:23.185Z,100.00
2022-11-28T05:48:25.972Z,100.00
2022-11-28T05:51:28.635Z,100.00
2022-11-28T05:54:31.647Z,100.00
2022-11-28T05:57:36.769Z,100.00
2022-11-28T06:00:41.953Z,100.00
2022-11-28T06:03:45.345Z,100.00
2022-11-28T06:06:49.725Z,100.00
2022-11-28T06:09:52.578Z,100.00
2022-11-28T06:12:55.105Z,100.00
2022-11-28T06:15:58.358Z,100.00
2022-11-28T06:19:03.233Z,100.00
2022-11-28T06:22:05.985Z,100.00
2022-11-28T06:25:08.480Z,100.00
2022-11-28T06:28:11.028Z,100.00
2022-11-28T06:31:19.249Z,100.00
2022-11-28T06:34:22.676Z,100.00
2022-11-28T06:37:25.095Z,100.00
2022-11-28T06:40:28.096Z,100.00
2022-11-28T06:43:31.103Z,100.00
2022-11-28T06:46:33.749Z,100.00
2022-11-28T06:49:36.838Z,100.00
2022-11-28T06:52:39.454Z,100.00
2022-11-28T06:55:42.367Z,100.00
2022-11-28T06:58:46.673Z,100.00
2022-11-28T07:01:49.430Z,100.00
2022-11-28T07:04:52.330Z,100.00
2022-11-28T07:07:54.975Z,100.00
2022-11-28T07:10:58.102Z,100.00
2022-11-28T07:14:01.975Z,100.00
2022-11-28T07:17:04.532Z,100.00
2022-11-28T07:20:08.796Z,100.00
2022-11-28T07:23:11.362Z,100.00
2022-11-28T07:26:15.986Z,100.00
2022-11-28T07:29:19.458Z,100.00
2022-11-28T07:32:21.995Z,100.00
2022-11-28T07:35:24.425Z,100.00
2022-11-28T07:38:26.795Z,100.00
2022-11-28T07:41:30.400Z,100.00
2022-11-28T07:44:32.944Z,100.00
2022-11-28T07:47:35.506Z,100.00
2022-11-28T07:50:39.704Z,100.00
2022-11-28T07:53:43.340Z,100.00
2022-11-28T07:57:13.761Z,100.00
2022-11-28T08:00:08.781Z,100.00
2022-11-28T08:03:15.038Z,100.00
2022-11-28T08:06:19.725Z,100.00
2022-11-28T08:09:22.061Z,100.00
2022-11-28T08:12:24.644Z,98.67
2022-11-28T08:15:31.072Z,98.06
2022-11-28T08:18:34.894Z,97.10
2022-11-28T08:21:37.304Z,96.00
2022-11-28T08:24:39.788Z,96.20
2022-11-28T08:27:42.099Z,94.31
2022-11-28T08:30:48.249Z,94.17
2022-11-28T08:33:52.624Z,93.66
2022-11-28T08:36:55.236Z,90.97
2022-11-28T08:39:57.768Z,90.41
2022-11-28T08:43:00.537Z,90.81
2022-11-28T08:46:08.810Z,88.79
2022-11-28T08:49:11.588Z,89.74
2022-11-28T08:52:14.179Z,88.67
2022-11-28T08:55:16.750Z,84.67
2022-11-28T08:58:19.051Z,81.35
2022-11-28T09:01:24.696Z,80.71
2022-11-28T09:04:27.178Z,80.09
2022-11-28T09:07:29.830Z,81.97
2022-11-28T09:10:36.787Z,82.53
2022-11-28T09:13:40.138Z,81.69
2022-11-28T09:16:42.448Z,81.05
2022-11-28T09:19:45.258Z,81.54
2022-11-28T09:22:47.720Z,81.65
2022-11-28T09:25:50.241Z,82.56
2022-11-28T09:28:53.413Z,83.46
2022-11-28T09:31:55.987Z,84.59
2022-11-28T09:34:58.346Z,85.29
2022-11-28T09:38:00.971Z,85.18
2022-11-28T09:41:33.786Z,83.91
2022-11-28T09:44:50.818Z,83.49
2022-11-28T09:47:57.224Z,82.43
2022-11-28T09:51:07.223Z,82.08
2022-11-28T09:54:25.613Z,81.77
2022-11-28T09:57:40.786Z,83.60
2022-11-28T10:01:13.462Z,81.98
2022-11-28T10:04:28.223Z,83.44
2022-11-28T10:07:54.654Z,82.56
2022-11-28T10:11:35.274Z,81.71
2022-11-28T10:15:15.312Z,81.55
2022-11-28T10:18:33.043Z,81.26
2022-11-28T10:21:47.186Z,79.80
2022-11-28T10:24:57.544Z,79.47
2022-11-28T10:27:59.869Z,79.55
2022-11-28T10:31:15.015Z,79.88
2022-11-28T10:34:39.885Z,79.60
2022-11-28T10:37:43.012Z,79.54
2022-11-28T10:40:53.692Z,80.83
2022-11-28T10:44:21.152Z,79.77
2022-11-28T10:47:39.389Z,79.71
2022-11-28T10:50:54.095Z,79.83
2022-11-28T10:54:11.669Z,80.36
2022-11-28T10:57:24.075Z,80.12
2022-11-28T11:00:26.482Z,80.48
2022-11-28T11:03:32.802Z,79.17
2022-11-28T11:06:41.607Z,80.47
2022-11-28T11:09:51.288Z,78.62
2022-11-28T11:12:53.754Z,79.11
2022-11-28T11:16:00.550Z,79.21
2022-11-28T11:19:03.496Z,79.36
2022-11-28T11:22:19.037Z,80.03
2022-11-28T11:25:21.410Z,80.27
2022-11-28T11:28:45.463Z,80.40
2022-11-28T11:31:52.823Z,80.47
2022-11-28T11:34:57.212Z,80.98
2022-11-28T11:38:21.221Z,79.93
2022-11-28T11:41:29.717Z,80.74
2022-11-28T11:44:36.976Z,80.80
2022-11-28T11:47:43.982Z,83.09
2022-11-28T11:50:53.945Z,84.46
2022-11-28T11:54:17.594Z,84.37
2022-11-28T11:57:37.661Z,83.89
2022-11-28T12:00:41.333Z,83.19
2022-11-28T12:04:08.580Z,81.40
2022-11-28T12:07:38.887Z,80.39
2022-11-28T12:11:11.781Z,79.87
2022-11-28T12:14:29.016Z,79.54
2022-11-28T12:18:22.472Z,80.26
2022-11-28T12:21:44.877Z,79.17
2022-11-28T12:24:56.082Z,79.50
2022-11-28T12:28:02.263Z,79.42
2022-11-28T12:31:29.077Z,78.63
2022-11-28T12:35:18.832Z,78.93
2022-11-28T12:38:50.459Z,79.70
2022-11-28T12:42:15.416Z,79.68
2022-11-28T12:45:36.885Z,80.25
2022-11-28T12:48:51.624Z,79.56
2022-11-28T12:52:28.447Z,79.24
2022-11-28T12:56:05.821Z,80.92
2022-11-28T12:59:25.732Z,80.74
2022-11-28T13:02:44.034Z,80.59
2022-11-28T13:06:04.705Z,81.21
2022-11-28T13:09:26.068Z,81.60
2022-11-28T13:12:43.369Z,81.36
2022-11-28T13:16:03.382Z,81.16
2022-11-28T13:19:28.629Z,82.73
2022-11-28T13:22:48.922Z,82.02
2022-11-28T13:26:13.142Z,83.15
2022-11-28T13:29:24.982Z,83.96
2022-11-28T13:32:46.543Z,83.85
2022-11-28T13:35:49.013Z,84.31
2022-11-28T13:39:18.387Z,84.83
2022-11-28T13:45:55.146Z,85.32
2022-11-28T13:49:20.391Z,85.27
2022-11-28T13:52:26.412Z,84.28
2022-11-28T13:56:03.715Z,84.61
2022-11-28T13:59:20.133Z,84.86
2022-11-28T14:02:33.531Z,85.71
2022-11-28T14:05:41.465Z,86.45
2022-11-28T14:08:47.029Z,86.61
2022-11-28T14:12:28.946Z,86.67
2022-11-28T14:15:44.891Z,87.67
2022-11-28T14:19:29.213Z,87.92
2022-11-28T14:22:43.141Z,87.68
2022-11-28T14:25:49.025Z,88.25
2022-11-28T14:28:52.157Z,89.28
2022-11-28T14:32:30.305Z,89.40
2022-11-28T14:35:50.686Z,89.58
2022-11-28T14:39:07.415Z,89.25
2022-11-28T14:42:25.453Z,89.25
2022-11-28T14:45:42.803Z,89.97
2022-11-28T14:48:57.917Z,91.09
2022-11-28T14:52:37.879Z,91.68
2022-11-28T14:55:40.707Z,92.01
2022-11-28T14:58:48.325Z,92.98
2022-11-28T15:01:57.301Z,92.42
2022-11-28T15:05:02.891Z,92.67
2022-11-28T15:08:29.785Z,93.17
2022-11-28T15:12:11.480Z,93.04
2022-11-28T15:15:16.895Z,93.86
2022-11-28T15:18:22.179Z,94.49
2022-11-28T15:21:24.573Z,95.13
2022-11-28T15:24:38.305Z,95.46
2022-11-28T15:27:40.930Z,95.59
2022-11-28T15:30:49.933Z,96.24
2022-11-28T15:33:52.727Z,97.02
2022-11-28T15:36:58.084Z,96.47
2022-11-28T15:40:07.231Z,96.48
2022-11-28T15:43:14.381Z,96.07
2022-11-28T15:46:38.055Z,96.94
2022-11-28T15:49:43.102Z,97.15
2022-11-28T15:52:58.369Z,97.45
2022-11-28T15:56:08.588Z,97.60
2022-11-28T15:59:10.963Z,97.40
2022-11-28T16:02:35.555Z,97.57
2022-11-28T16:05:38.959Z,98.05
2022-11-28T16:08:50.582Z,98.08
2022-11-28T16:11:54.544Z,97.77
2022-11-28T16:15:01.852Z,98.10
2022-11-28T16:18:05.062Z,97.93
2022-11-28T16:21:12.939Z,97.64
2022-11-28T16:24:38.696Z,98.22
2022-11-28T16:27:42.856Z,97.92
2022-11-28T16:30:48.053Z,97.85
2022-11-28T16:33:50.377Z,98.08
2022-11-28T16:36:53.007Z,97.29
2022-11-28T16:40:00.124Z,97.02
2022-11-28T16:43:04.839Z,96.94
2022-11-28T16:46:17.507Z,96.77
2022-11-28T16:49:31.830Z,97.22
2022-11-28T16:52:48.553Z,98.33
